<?xml version="1.0" encoding="UTF-8" standalone="no" ?>
<gpx xmlns="http://www.topografix.com/GPX/1/1" xmlns:xsi="http://www.w3.org/2001/XMLSchema-instance" xsi:schemaLocation="http://www.topografix.com/GPX/1/1 http://www.topografix.com/GPX/1/1/gpx.xsd" version="1.1" creator="VisuGPX - https://www.visugpx.com">
  <metadata>
    <name>vendredi_septembre_4ieme-12007514-1683700035-294</name>
  </metadata>
  <trk>
    <name><![CDATA[vendredi  septembre 4ième  -12007514]]></name>
    <extensions>
      <line xmlns="http://www.topografix.com/GPX/gpx_style/0/2">
        <color>0000FF</color>
        <width>4</width>
      </line>
    </extensions>
    <trkseg>
      <trkpt lat="48.60079" lon="-0.34772">
        <ele>230</ele>
        <time>2023-05-10T06:27:15Z</time>
      </trkpt>
      <trkpt lat="48.6016" lon="-0.34663">
        <ele>231</ele>
        <time>2023-05-10T06:27:40Z</time>
      </trkpt>
      <trkpt lat="48.60188" lon="-0.34523">
        <ele>233</ele>
        <time>2023-05-10T06:28:03Z</time>
      </trkpt>
      <trkpt lat="48.60268" lon="-0.34669">
        <ele>236</ele>
        <time>2023-05-10T06:28:32Z</time>
      </trkpt>
      <trkpt lat="48.6034" lon="-0.34833">
        <ele>240</ele>
        <time>2023-05-10T06:29:03Z</time>
      </trkpt>
      <trkpt lat="48.604" lon="-0.35003">
        <ele>239</ele>
        <time>2023-05-10T06:29:32Z</time>
      </trkpt>
      <trkpt lat="48.60453" lon="-0.35118">
        <ele>238</ele>
        <time>2023-05-10T06:29:54Z</time>
      </trkpt>
      <trkpt lat="48.60457" lon="-0.35215">
        <ele>239</ele>
        <time>2023-05-10T06:30:09Z</time>
      </trkpt>
      <trkpt lat="48.60485" lon="-0.35385">
        <ele>240</ele>
        <time>2023-05-10T06:30:36Z</time>
      </trkpt>
      <trkpt lat="48.60469" lon="-0.35518">
        <ele>239</ele>
        <time>2023-05-10T06:30:57Z</time>
      </trkpt>
      <trkpt lat="48.60485" lon="-0.35676">
        <ele>246</ele>
        <time>2023-05-10T06:31:22Z</time>
      </trkpt>
      <trkpt lat="48.60529" lon="-0.35895">
        <ele>253</ele>
        <time>2023-05-10T06:31:57Z</time>
      </trkpt>
      <trkpt lat="48.60581" lon="-0.35974">
        <ele>253</ele>
        <time>2023-05-10T06:32:14Z</time>
      </trkpt>
      <trkpt lat="48.60637" lon="-0.36095">
        <ele>248</ele>
        <time>2023-05-10T06:32:37Z</time>
      </trkpt>
      <trkpt lat="48.60665" lon="-0.36186">
        <ele>244</ele>
        <time>2023-05-10T06:32:52Z</time>
      </trkpt>
      <trkpt lat="48.60657" lon="-0.36307">
        <ele>240</ele>
        <time>2023-05-10T06:33:11Z</time>
      </trkpt>
      <trkpt lat="48.60641" lon="-0.36405">
        <ele>234</ele>
        <time>2023-05-10T06:33:27Z</time>
      </trkpt>
      <trkpt lat="48.60601" lon="-0.36508">
        <ele>235</ele>
        <time>2023-05-10T06:33:45Z</time>
      </trkpt>
      <trkpt lat="48.60533" lon="-0.36568">
        <ele>236</ele>
        <time>2023-05-10T06:34:04Z</time>
      </trkpt>
      <trkpt lat="48.60513" lon="-0.36696">
        <ele>239</ele>
        <time>2023-05-10T06:34:24Z</time>
      </trkpt>
      <trkpt lat="48.60533" lon="-0.36781">
        <ele>242</ele>
        <time>2023-05-10T06:34:38Z</time>
      </trkpt>
      <trkpt lat="48.60513" lon="-0.36969">
        <ele>244</ele>
        <time>2023-05-10T06:35:07Z</time>
      </trkpt>
      <trkpt lat="48.60172" lon="-0.36787">
        <ele>230</ele>
        <time>2023-05-10T06:36:32Z</time>
      </trkpt>
      <trkpt lat="48.60099" lon="-0.36714">
        <ele>226</ele>
        <time>2023-05-10T06:36:52Z</time>
      </trkpt>
      <trkpt lat="48.60023" lon="-0.36866">
        <ele>224</ele>
        <time>2023-05-10T06:37:22Z</time>
      </trkpt>
      <trkpt lat="48.59935" lon="-0.37127">
        <ele>222</ele>
        <time>2023-05-10T06:38:07Z</time>
      </trkpt>
      <trkpt lat="48.59822" lon="-0.37248">
        <ele>217</ele>
        <time>2023-05-10T06:38:39Z</time>
      </trkpt>
      <trkpt lat="48.59839" lon="-0.374">
        <ele>225</ele>
        <time>2023-05-10T06:39:03Z</time>
      </trkpt>
      <trkpt lat="48.59871" lon="-0.37594">
        <ele>226</ele>
        <time>2023-05-10T06:39:34Z</time>
      </trkpt>
      <trkpt lat="48.59698" lon="-0.37618">
        <ele>217</ele>
        <time>2023-05-10T06:40:14Z</time>
      </trkpt>
      <trkpt lat="48.59694" lon="-0.3777">
        <ele>217</ele>
        <time>2023-05-10T06:40:38Z</time>
      </trkpt>
      <trkpt lat="48.59726" lon="-0.37867">
        <ele>214</ele>
        <time>2023-05-10T06:40:55Z</time>
      </trkpt>
      <trkpt lat="48.59818" lon="-0.38013">
        <ele>212</ele>
        <time>2023-05-10T06:41:26Z</time>
      </trkpt>
      <trkpt lat="48.59822" lon="-0.38098">
        <ele>212</ele>
        <time>2023-05-10T06:41:39Z</time>
      </trkpt>
      <trkpt lat="48.59895" lon="-0.38231">
        <ele>215</ele>
        <time>2023-05-10T06:42:06Z</time>
      </trkpt>
      <trkpt lat="48.59935" lon="-0.38347">
        <ele>212</ele>
        <time>2023-05-10T06:42:26Z</time>
      </trkpt>
      <trkpt lat="48.60011" lon="-0.38498">
        <ele>206</ele>
        <time>2023-05-10T06:42:55Z</time>
      </trkpt>
      <trkpt lat="48.60087" lon="-0.38626">
        <ele>215</ele>
        <time>2023-05-10T06:43:22Z</time>
      </trkpt>
      <trkpt lat="48.60091" lon="-0.38832">
        <ele>231</ele>
        <time>2023-05-10T06:43:54Z</time>
      </trkpt>
      <trkpt lat="48.60035" lon="-0.38941">
        <ele>240</ele>
        <time>2023-05-10T06:44:15Z</time>
      </trkpt>
      <trkpt lat="48.59923" lon="-0.39093">
        <ele>238</ele>
        <time>2023-05-10T06:44:50Z</time>
      </trkpt>
      <trkpt lat="48.5963" lon="-0.39336">
        <ele>228</ele>
        <time>2023-05-10T06:46:08Z</time>
      </trkpt>
      <trkpt lat="48.59521" lon="-0.39409">
        <ele>225</ele>
        <time>2023-05-10T06:46:36Z</time>
      </trkpt>
      <trkpt lat="48.59373" lon="-0.39494">
        <ele>229</ele>
        <time>2023-05-10T06:47:13Z</time>
      </trkpt>
      <trkpt lat="48.59232" lon="-0.39627">
        <ele>226</ele>
        <time>2023-05-10T06:47:52Z</time>
      </trkpt>
      <trkpt lat="48.59092" lon="-0.39852">
        <ele>220</ele>
        <time>2023-05-10T06:48:39Z</time>
      </trkpt>
      <trkpt lat="48.58988" lon="-0.39973">
        <ele>211</ele>
        <time>2023-05-10T06:49:10Z</time>
      </trkpt>
      <trkpt lat="48.58947" lon="-0.40016">
        <ele>208</ele>
        <time>2023-05-10T06:49:22Z</time>
      </trkpt>
      <trkpt lat="48.58915" lon="-0.40125">
        <ele>205</ele>
        <time>2023-05-10T06:49:40Z</time>
      </trkpt>
      <trkpt lat="48.58887" lon="-0.40301">
        <ele>207</ele>
        <time>2023-05-10T06:50:08Z</time>
      </trkpt>
      <trkpt lat="48.58867" lon="-0.40483">
        <ele>210</ele>
        <time>2023-05-10T06:50:37Z</time>
      </trkpt>
      <trkpt lat="48.58887" lon="-0.40592">
        <ele>205</ele>
        <time>2023-05-10T06:50:54Z</time>
      </trkpt>
      <trkpt lat="48.58711" lon="-0.40884">
        <ele>201</ele>
        <time>2023-05-10T06:51:55Z</time>
      </trkpt>
      <trkpt lat="48.58614" lon="-0.40896">
        <ele>199</ele>
        <time>2023-05-10T06:52:18Z</time>
      </trkpt>
      <trkpt lat="48.5853" lon="-0.40744">
        <ele>202</ele>
        <time>2023-05-10T06:52:48Z</time>
      </trkpt>
      <trkpt lat="48.58478" lon="-0.40623">
        <ele>203</ele>
        <time>2023-05-10T06:53:11Z</time>
      </trkpt>
      <trkpt lat="48.58409" lon="-0.40689">
        <ele>201</ele>
        <time>2023-05-10T06:53:30Z</time>
      </trkpt>
      <trkpt lat="48.58253" lon="-0.40902">
        <ele>194</ele>
        <time>2023-05-10T06:54:19Z</time>
      </trkpt>
      <trkpt lat="48.58136" lon="-0.41272">
        <ele>191</ele>
        <time>2023-05-10T06:55:22Z</time>
      </trkpt>
      <trkpt lat="48.58187" lon="-0.41031">
        <ele>190</ele>
        <time>2023-05-10T06:56:01Z</time>
      </trkpt>
      <trkpt lat="48.58076" lon="-0.40883">
        <ele>192</ele>
        <time>2023-05-10T06:56:36Z</time>
      </trkpt>
      <trkpt lat="48.5813" lon="-0.40469">
        <ele>208</ele>
        <time>2023-05-10T06:57:41Z</time>
      </trkpt>
      <trkpt lat="48.58059" lon="-0.40449">
        <ele>211</ele>
        <time>2023-05-10T06:57:58Z</time>
      </trkpt>
      <trkpt lat="48.57786" lon="-0.40536">
        <ele>213</ele>
        <time>2023-05-10T06:59:03Z</time>
      </trkpt>
      <trkpt lat="48.57722" lon="-0.40546">
        <ele>213</ele>
        <time>2023-05-10T06:59:18Z</time>
      </trkpt>
      <trkpt lat="48.57651" lon="-0.40413">
        <ele>211</ele>
        <time>2023-05-10T06:59:45Z</time>
      </trkpt>
      <trkpt lat="48.57384" lon="-0.40725">
        <ele>198</ele>
        <time>2023-05-10T07:01:03Z</time>
      </trkpt>
      <trkpt lat="48.5733" lon="-0.40684">
        <ele>199</ele>
        <time>2023-05-10T07:01:17Z</time>
      </trkpt>
      <trkpt lat="48.57002" lon="-0.41092">
        <ele>203</ele>
        <time>2023-05-10T07:02:57Z</time>
      </trkpt>
      <trkpt lat="48.57117" lon="-0.41311">
        <ele>200</ele>
        <time>2023-05-10T07:03:40Z</time>
      </trkpt>
      <trkpt lat="48.57202" lon="-0.4147">
        <ele>189</ele>
        <time>2023-05-10T07:04:11Z</time>
      </trkpt>
      <trkpt lat="48.57151" lon="-0.41587">
        <ele>188</ele>
        <time>2023-05-10T07:04:33Z</time>
      </trkpt>
      <trkpt lat="48.571" lon="-0.41786">
        <ele>190</ele>
        <time>2023-05-10T07:05:06Z</time>
      </trkpt>
      <trkpt lat="48.57063" lon="-0.41919">
        <ele>193</ele>
        <time>2023-05-10T07:05:28Z</time>
      </trkpt>
      <trkpt lat="48.57023" lon="-0.42174">
        <ele>204</ele>
        <time>2023-05-10T07:06:09Z</time>
      </trkpt>
      <trkpt lat="48.56975" lon="-0.42465">
        <ele>211</ele>
        <time>2023-05-10T07:06:55Z</time>
      </trkpt>
      <trkpt lat="48.56975" lon="-0.42592">
        <ele>215</ele>
        <time>2023-05-10T07:07:15Z</time>
      </trkpt>
      <trkpt lat="48.57056" lon="-0.42756">
        <ele>217</ele>
        <time>2023-05-10T07:07:47Z</time>
      </trkpt>
      <trkpt lat="48.56019" lon="-0.42072">
        <ele>188</ele>
        <time>2023-05-10T07:12:11Z</time>
      </trkpt>
      <trkpt lat="48.56023" lon="-0.42135">
        <ele>192</ele>
        <time>2023-05-10T07:12:21Z</time>
      </trkpt>
      <trkpt lat="48.56047" lon="-0.42242">
        <ele>195</ele>
        <time>2023-05-10T07:12:38Z</time>
      </trkpt>
      <trkpt lat="48.56027" lon="-0.42402">
        <ele>200</ele>
        <time>2023-05-10T07:13:03Z</time>
      </trkpt>
      <trkpt lat="48.55716" lon="-0.42038">
        <ele>215</ele>
        <time>2023-05-10T07:14:35Z</time>
      </trkpt>
      <trkpt lat="48.55641" lon="-0.42035">
        <ele>222</ele>
        <time>2023-05-10T07:14:53Z</time>
      </trkpt>
      <trkpt lat="48.55477" lon="-0.41993">
        <ele>226</ele>
        <time>2023-05-10T07:15:31Z</time>
      </trkpt>
      <trkpt lat="48.55414" lon="-0.4212">
        <ele>222</ele>
        <time>2023-05-10T07:15:56Z</time>
      </trkpt>
      <trkpt lat="48.55336" lon="-0.42108">
        <ele>217</ele>
        <time>2023-05-10T07:16:14Z</time>
      </trkpt>
      <trkpt lat="48.55292" lon="-0.42096">
        <ele>211</ele>
        <time>2023-05-10T07:16:25Z</time>
      </trkpt>
      <trkpt lat="48.55155" lon="-0.42363">
        <ele>194</ele>
        <time>2023-05-10T07:17:17Z</time>
      </trkpt>
      <trkpt lat="48.55067" lon="-0.42143">
        <ele>180</ele>
        <time>2023-05-10T07:17:57Z</time>
      </trkpt>
      <trkpt lat="48.55111" lon="-0.42031">
        <ele>178</ele>
        <time>2023-05-10T07:18:17Z</time>
      </trkpt>
      <trkpt lat="48.55195" lon="-0.41868">
        <ele>185</ele>
        <time>2023-05-10T07:18:49Z</time>
      </trkpt>
      <trkpt lat="48.55212" lon="-0.41761">
        <ele>182</ele>
        <time>2023-05-10T07:19:06Z</time>
      </trkpt>
      <trkpt lat="48.55212" lon="-0.41689">
        <ele>176</ele>
        <time>2023-05-10T07:19:17Z</time>
      </trkpt>
      <trkpt lat="48.55276" lon="-0.41602">
        <ele>178</ele>
        <time>2023-05-10T07:19:37Z</time>
      </trkpt>
      <trkpt lat="48.55411" lon="-0.41704">
        <ele>188</ele>
        <time>2023-05-10T07:20:12Z</time>
      </trkpt>
      <trkpt lat="48.55476" lon="-0.41781">
        <ele>191</ele>
        <time>2023-05-10T07:20:31Z</time>
      </trkpt>
      <trkpt lat="48.55594" lon="-0.41761">
        <ele>189</ele>
        <time>2023-05-10T07:20:59Z</time>
      </trkpt>
      <trkpt lat="48.55594" lon="-0.41689">
        <ele>197</ele>
        <time>2023-05-10T07:21:10Z</time>
      </trkpt>
      <trkpt lat="48.55533" lon="-0.41546">
        <ele>206</ele>
        <time>2023-05-10T07:21:37Z</time>
      </trkpt>
      <trkpt lat="48.55438" lon="-0.41378">
        <ele>215</ele>
        <time>2023-05-10T07:22:11Z</time>
      </trkpt>
      <trkpt lat="48.55482" lon="-0.41301">
        <ele>214</ele>
        <time>2023-05-10T07:22:27Z</time>
      </trkpt>
      <trkpt lat="48.55574" lon="-0.41194">
        <ele>202</ele>
        <time>2023-05-10T07:22:54Z</time>
      </trkpt>
      <trkpt lat="48.55618" lon="-0.41102">
        <ele>197</ele>
        <time>2023-05-10T07:23:11Z</time>
      </trkpt>
      <trkpt lat="48.55705" lon="-0.41209">
        <ele>195</ele>
        <time>2023-05-10T07:23:37Z</time>
      </trkpt>
      <trkpt lat="48.558" lon="-0.41118">
        <ele>207</ele>
        <time>2023-05-10T07:24:04Z</time>
      </trkpt>
      <trkpt lat="48.55867" lon="-0.40842">
        <ele>219</ele>
        <time>2023-05-10T07:24:49Z</time>
      </trkpt>
      <trkpt lat="48.55925" lon="-0.40577">
        <ele>222</ele>
        <time>2023-05-10T07:25:32Z</time>
      </trkpt>
      <trkpt lat="48.55965" lon="-0.40337">
        <ele>222</ele>
        <time>2023-05-10T07:26:10Z</time>
      </trkpt>
      <trkpt lat="48.55766" lon="-0.4027">
        <ele>214</ele>
        <time>2023-05-10T07:26:58Z</time>
      </trkpt>
      <trkpt lat="48.55672" lon="-0.40638">
        <ele>209</ele>
        <time>2023-05-10T07:27:59Z</time>
      </trkpt>
      <trkpt lat="48.55455" lon="-0.40653">
        <ele>200</ele>
        <time>2023-05-10T07:28:50Z</time>
      </trkpt>
      <trkpt lat="48.55543" lon="-0.40204">
        <ele>201</ele>
        <time>2023-05-10T07:30:02Z</time>
      </trkpt>
      <trkpt lat="48.55563" lon="-0.40082">
        <ele>201</ele>
        <time>2023-05-10T07:30:22Z</time>
      </trkpt>
      <trkpt lat="48.55173" lon="-0.39893">
        <ele>219</ele>
        <time>2023-05-10T07:31:57Z</time>
      </trkpt>
      <trkpt lat="48.55312" lon="-0.39301">
        <ele>217</ele>
        <time>2023-05-10T07:33:34Z</time>
      </trkpt>
      <trkpt lat="48.5578" lon="-0.38879">
        <ele>219</ele>
        <time>2023-05-10T07:35:42Z</time>
      </trkpt>
      <trkpt lat="48.56164" lon="-0.38597">
        <ele>206</ele>
        <time>2023-05-10T07:37:21Z</time>
      </trkpt>
      <trkpt lat="48.5632" lon="-0.38797">
        <ele>199</ele>
        <time>2023-05-10T07:38:09Z</time>
      </trkpt>
      <trkpt lat="48.56515" lon="-0.3914">
        <ele>188</ele>
        <time>2023-05-10T07:39:19Z</time>
      </trkpt>
      <trkpt lat="48.56818" lon="-0.39702">
        <ele>198</ele>
        <time>2023-05-10T07:41:11Z</time>
      </trkpt>
      <trkpt lat="48.5667" lon="-0.39884">
        <ele>196</ele>
        <time>2023-05-10T07:41:56Z</time>
      </trkpt>
      <trkpt lat="48.56467" lon="-0.4013">
        <ele>212</ele>
        <time>2023-05-10T07:42:56Z</time>
      </trkpt>
      <trkpt lat="48.56603" lon="-0.40381">
        <ele>212</ele>
        <time>2023-05-10T07:43:46Z</time>
      </trkpt>
      <trkpt lat="48.567" lon="-0.40551">
        <ele>212</ele>
        <time>2023-05-10T07:44:21Z</time>
      </trkpt>
      <trkpt lat="48.56798" lon="-0.40448">
        <ele>207</ele>
        <time>2023-05-10T07:44:49Z</time>
      </trkpt>
      <trkpt lat="48.56897" lon="-0.40263">
        <ele>202</ele>
        <time>2023-05-10T07:45:26Z</time>
      </trkpt>
      <trkpt lat="48.56993" lon="-0.40032">
        <ele>201</ele>
        <time>2023-05-10T07:46:08Z</time>
      </trkpt>
      <trkpt lat="48.57057" lon="-0.39926">
        <ele>204</ele>
        <time>2023-05-10T07:46:30Z</time>
      </trkpt>
      <trkpt lat="48.57111" lon="-0.39689">
        <ele>205</ele>
        <time>2023-05-10T07:47:09Z</time>
      </trkpt>
      <trkpt lat="48.57135" lon="-0.39292">
        <ele>198</ele>
        <time>2023-05-10T07:48:10Z</time>
      </trkpt>
      <trkpt lat="48.5718" lon="-0.38955">
        <ele>197</ele>
        <time>2023-05-10T07:49:04Z</time>
      </trkpt>
      <trkpt lat="48.57423" lon="-0.38548">
        <ele>191</ele>
        <time>2023-05-10T07:50:28Z</time>
      </trkpt>
      <trkpt lat="48.57531" lon="-0.37932">
        <ele>199</ele>
        <time>2023-05-10T07:52:07Z</time>
      </trkpt>
      <trkpt lat="48.57489" lon="-0.37766">
        <ele>203</ele>
        <time>2023-05-10T07:52:34Z</time>
      </trkpt>
      <trkpt lat="48.57517" lon="-0.37678">
        <ele>204</ele>
        <time>2023-05-10T07:52:49Z</time>
      </trkpt>
      <trkpt lat="48.57501" lon="-0.37347">
        <ele>201</ele>
        <time>2023-05-10T07:53:41Z</time>
      </trkpt>
      <trkpt lat="48.57541" lon="-0.37159">
        <ele>199</ele>
        <time>2023-05-10T07:54:11Z</time>
      </trkpt>
      <trkpt lat="48.577" lon="-0.36986">
        <ele>194</ele>
        <time>2023-05-10T07:54:57Z</time>
      </trkpt>
      <trkpt lat="48.57894" lon="-0.36816">
        <ele>186</ele>
        <time>2023-05-10T07:55:49Z</time>
      </trkpt>
      <trkpt lat="48.58095" lon="-0.3664">
        <ele>190</ele>
        <time>2023-05-10T07:56:43Z</time>
      </trkpt>
      <trkpt lat="48.58274" lon="-0.36521">
        <ele>190</ele>
        <time>2023-05-10T07:57:29Z</time>
      </trkpt>
      <trkpt lat="48.58457" lon="-0.36543">
        <ele>187</ele>
        <time>2023-05-10T07:58:12Z</time>
      </trkpt>
      <trkpt lat="48.58555" lon="-0.36546">
        <ele>185</ele>
        <time>2023-05-10T07:58:35Z</time>
      </trkpt>
      <trkpt lat="48.58647" lon="-0.36455">
        <ele>186</ele>
        <time>2023-05-10T07:59:01Z</time>
      </trkpt>
      <trkpt lat="48.58691" lon="-0.36318">
        <ele>191</ele>
        <time>2023-05-10T07:59:24Z</time>
      </trkpt>
      <trkpt lat="48.58703" lon="-0.36194">
        <ele>197</ele>
        <time>2023-05-10T07:59:43Z</time>
      </trkpt>
      <trkpt lat="48.58697" lon="-0.36054">
        <ele>201</ele>
        <time>2023-05-10T08:00:05Z</time>
      </trkpt>
      <trkpt lat="48.58695" lon="-0.35899">
        <ele>203</ele>
        <time>2023-05-10T08:00:29Z</time>
      </trkpt>
      <trkpt lat="48.58719" lon="-0.3583">
        <ele>205</ele>
        <time>2023-05-10T08:00:41Z</time>
      </trkpt>
      <trkpt lat="48.58824" lon="-0.35814">
        <ele>212</ele>
        <time>2023-05-10T08:01:06Z</time>
      </trkpt>
      <trkpt lat="48.58902" lon="-0.35799">
        <ele>217</ele>
        <time>2023-05-10T08:01:24Z</time>
      </trkpt>
      <trkpt lat="48.58972" lon="-0.35811">
        <ele>220</ele>
        <time>2023-05-10T08:01:41Z</time>
      </trkpt>
      <trkpt lat="48.59047" lon="-0.35766">
        <ele>222</ele>
        <time>2023-05-10T08:01:59Z</time>
      </trkpt>
      <trkpt lat="48.59211" lon="-0.35666">
        <ele>222</ele>
        <time>2023-05-10T08:02:41Z</time>
      </trkpt>
      <trkpt lat="48.59261" lon="-0.35559">
        <ele>220</ele>
        <time>2023-05-10T08:03:01Z</time>
      </trkpt>
      <trkpt lat="48.59368" lon="-0.35517">
        <ele>223</ele>
        <time>2023-05-10T08:03:27Z</time>
      </trkpt>
      <trkpt lat="48.5946" lon="-0.35377">
        <ele>219</ele>
        <time>2023-05-10T08:03:57Z</time>
      </trkpt>
      <trkpt lat="48.59627" lon="-0.35241">
        <ele>219</ele>
        <time>2023-05-10T08:04:42Z</time>
      </trkpt>
      <trkpt lat="48.59727" lon="-0.35113">
        <ele>217</ele>
        <time>2023-05-10T08:05:12Z</time>
      </trkpt>
      <trkpt lat="48.59785" lon="-0.35004">
        <ele>221</ele>
        <time>2023-05-10T08:05:34Z</time>
      </trkpt>
    </trkseg>
  </trk>
</gpx>